MMNL 090143Z 16008KT 10SM SKC 22/17 A2994 RMK MSGTX MMMX= 090143

MMNL 090052Z 17006KT 10SM SKC 24/17 A2991 RMK MSGTX MMMX= 090052

MMNL 082349Z 16006KT 10SM SKC 27/15 A2991 RMK SLP116 57006 954 MSGTX MMMX= 082349

MMNL 082246Z 00000KT 10SM SKC 28/15 A2991 RMK MSGTX MMMX= 082246

MMNL 082145Z 00000KT 10SM SKC 28/14 A2993 RMK MSGTX MMMX= 082145

MMNL 082047Z 00000KT 10SM SKC 27/14 A2993 RMK SLP122 57038 952 MSGTX MMMX= 082047

MMNL 081942Z 00000KT 10SM SKC 25/13 A2993 RMK MSGTX MMMX= 081942

MMNL 081841Z 00000KT 10SM SKC 24/13 A3001 RMK MSGTX MMMX= 081841

MMNL 081741Z 00000KT 10SM SKC 22/13 A3004 RMK SLP160 56002 955 MSGTX MMMX= 081741

MMNL 081648Z 00000KT 10SM SKC 20/11 A3006 RMK ISOL CI MSGTX MMMX= 081648

MMNL 081540Z 00000KT 8SM FEW200 17/10 A3007 RMK 8/002 HZY= 081540

MMNL 081440Z 00000KT 8SM FEW200 12/08 A3005 RMK SLP166 51006 966 8/002 HZY= 081442

MMNL 081358Z RTD 00000KT 8SM FEW200 10/08 A3003 RMK 8/002 HZY RTS= 081358

MMNL 080140Z 00000KT 8SM FEW200 17/08 A2995 RMK 8/002= 080140

MMNL 080040Z 17005KT 8SM SCT200 19/08 A2993 RMK 8/002= 080040

MMNL 072340Z 00000KT 10SM SCT200 22/08 A2992 RMK SLP120 57004 992 8/002= 072340

MMNL 072240Z 14005KT 10SM SCT200 23/08 A2991 RMK 8/002= 072240

MMNL 072140Z 12006KT 10SM SCT200 24/08 A2991 RMK 8/002= 072140

MMNL 072040Z 16008KT 10SM FEW080 SCT200 24/07 A2993 RMK SLP123 57041 990 8/072= 072041

MMNL 071941Z 00000KT 10SM SCT080 BKN200 22/03 A2997 RMK 8/072= 071941

MMNL 071841Z 00000KT 8SM FEW020 BKN080 BKN200 21/02 A3001 RMK 8/572= 071842

MMNL 071743Z 10005KT 8SM FEW020 BKN200 19/00 A3005 RMK SLP167 57013 951 8/502 ISOL AS= 071745

MMNL 071642Z 15006KT 7SM SCT020 BKN200 18/00 A3009 RMK 8/502 HZY ISOL AS= 071644

MMNL 071540Z 12008KT 7SM FEW080 16/M01 A3011 RMK 8/070 HZY ISOL SC CI= 071542

MMNL 071441Z 10007KT 6SM FEW015 SCT080 14/00 A3009 RMK SLP180 52007 936 8/570 HZY FU S= 071442

MMNL 071400Z RTD 10005KT 6SM SCT015 BKN080 14/00 A3008 RMK 8/570 HZY ISOL CI RTS= 071400

MMNL 070140Z 34008KT 5SM OVC030 18/02 A3015 RMK 8/5// HZ= 070140

MMNL 070040Z 35012KT 6SM OVC030 19/02 A3013 RMK 8/5// HZY= 070040

MMNL 062340Z 35014KT 6SM OVC035 19/03 A3011 RMK SLP182 52012 944 8/5// HZY= 062340

MMNL 062241Z 34011KT 6SM OVC050 19/04 A3009 RMK 8/5// HZY= 062241

MMNL 062140Z 34013KT 6SM OVC040 19/05 A3008 RMK 8/5// HZY= 062140

MMNL 062040Z 34018KT 6SM OVC040 18/08 A3007 RMK SLP170 53004 943 8/5// HZY= 062041

MMNL 061941Z 33021KT 6SM OVC040 18/10 A3007 RMK 8/5// HZY= 061941

MMNL 061845Z 34015KT 7SM SCT050 BKN050 OVC200 24/18 A3008 RMK 8/577 HZY= 061846

MMNL 061744Z 34015KT 7SM OVC020 24/19 A3006 RMK SLP164 52024 940 8/5// HZY= 061744

MMNL 061640Z 00000KT 10SM SCT150 BKN200 24/20 A3003 RMK 8/078= 061640

MMNL 061540Z 00000KT 10SM BKN200 23/21 A3002 RMK 8/008= 061539

MMNL 061441Z 00000KT 8SM BKN200 21/21 A2999 RMK SLP140 52006 900 8/008= 061443

MMNL 061402Z RTD 00000KT 8SM BKN200 19/19 A2997 RMK 8/008 RTS= 061402